sensor_id;sensor_type;location;lat;lon;timestamp;pressure;altitude;pressure_sealevel;temperature;humidity
71601;BME280;59446;52.192;4.628;2023-03-17T00:01:58;100796.81;;;16.98;49.47
71601;BME280;59446;52.192;4.628;2023-03-17T00:04:25;100799.22;;;17.03;49.29
71601;BME280;59446;52.192;4.628;2023-03-17T00:06:51;100795.03;;;16.99;49.38
71601;BME280;59446;52.192;4.628;2023-03-17T00:09:18;100796.69;;;17.02;49.03
71601;BME280;59446;52.192;4.628;2023-03-17T00:11:45;100792.09;;;17.05;49.01
71601;BME280;59446;52.192;4.628;2023-03-17T00:14:11;100779.25;;;16.99;49.03
71601;BME280;59446;52.192;4.628;2023-03-17T00:16:40;100762.72;;;16.97;49.46
71601;BME280;59446;52.192;4.628;2023-03-17T00:19:13;100762.81;;;16.95;49.38
71601;BME280;59446;52.192;4.628;2023-03-17T00:21:40;100758.41;;;16.96;49.84
71601;BME280;59446;52.192;4.628;2023-03-17T00:24:09;100763.84;;;16.93;49.73
71601;BME280;59446;52.192;4.628;2023-03-17T00:26:35;100766.63;;;16.90;49.69
71601;BME280;59446;52.192;4.628;2023-03-17T00:29:01;100765.34;;;16.97;49.27
71601;BME280;59446;52.192;4.628;2023-03-17T00:31:28;100760.25;;;16.94;49.82
71601;BME280;59446;52.192;4.628;2023-03-17T00:33:54;100757.47;;;16.97;49.46
71601;BME280;59446;52.192;4.628;2023-03-17T00:36:23;100762.22;;;16.90;49.99
71601;BME280;59446;52.192;4.628;2023-03-17T00:38:50;100766.47;;;16.93;49.87
71601;BME280;59446;52.192;4.628;2023-03-17T00:41:17;100776.06;;;16.94;50.14
71601;BME280;59446;52.192;4.628;2023-03-17T00:43:42;100779.97;;;16.87;49.55
71601;BME280;59446;52.192;4.628;2023-03-17T00:46:11;100779.19;;;16.85;49.85
71601;BME280;59446;52.192;4.628;2023-03-17T00:48:39;100767.75;;;16.86;49.80
71601;BME280;59446;52.192;4.628;2023-03-17T00:51:04;100754.00;;;16.81;50.43
71601;BME280;59446;52.192;4.628;2023-03-17T00:53:30;100743.31;;;16.84;50.09
71601;BME280;59446;52.192;4.628;2023-03-17T00:55:55;100731.09;;;16.83;50.22
71601;BME280;59446;52.192;4.628;2023-03-17T00:58:27;100727.28;;;16.88;50.17
71601;BME280;59446;52.192;4.628;2023-03-17T01:00:53;100739.94;;;16.82;50.42
71601;BME280;59446;52.192;4.628;2023-03-17T01:03:20;100753.06;;;16.82;50.05
71601;BME280;59446;52.192;4.628;2023-03-17T01:05:46;100751.38;;;16.81;50.54
71601;BME280;59446;52.192;4.628;2023-03-17T01:08:12;100748.59;;;16.84;50.21
71601;BME280;59446;52.192;4.628;2023-03-17T01:10:38;100750.69;;;16.77;50.26
71601;BME280;59446;52.192;4.628;2023-03-17T01:13:04;100753.16;;;16.80;50.30
71601;BME280;59446;52.192;4.628;2023-03-17T01:15:31;100747.91;;;16.80;50.30
71601;BME280;59446;52.192;4.628;2023-03-17T01:17:58;100753.25;;;16.79;49.92
71601;BME280;59446;52.192;4.628;2023-03-17T01:20:27;100752.16;;;16.83;49.86
71601;BME280;59446;52.192;4.628;2023-03-17T01:22:53;100744.56;;;16.77;50.00
71601;BME280;59446;52.192;4.628;2023-03-17T01:25:19;100748.22;;;16.74;50.58
71601;BME280;59446;52.192;4.628;2023-03-17T01:27:46;100737.72;;;16.74;50.53
71601;BME280;59446;52.192;4.628;2023-03-17T01:30:23;100731.59;;;16.74;49.98
71601;BME280;59446;52.192;4.628;2023-03-17T01:32:50;100731.59;;;16.74;50.48
71601;BME280;59446;52.192;4.628;2023-03-17T01:35:16;100724.66;;;16.73;49.97
71601;BME280;59446;52.192;4.628;2023-03-17T01:37:42;100728.22;;;16.72;50.34
71601;BME280;59446;52.192;4.628;2023-03-17T01:40:21;100721.09;;;16.74;50.48
71601;BME280;59446;52.192;4.628;2023-03-17T01:42:53;100708.69;;;16.76;50.42
71601;BME280;59446;52.192;4.628;2023-03-17T01:48:23;100709.03;;;16.70;50.30
71601;BME280;59446;52.192;4.628;2023-03-17T01:50:51;100703.63;;;16.73;50.46
71601;BME280;59446;52.192;4.628;2023-03-17T01:53:18;100702.84;;;16.71;50.02
71601;BME280;59446;52.192;4.628;2023-03-17T01:55:46;100715.81;;;16.74;50.00
71601;BME280;59446;52.192;4.628;2023-03-17T01:58:15;100715.81;;;16.74;50.11
71601;BME280;59446;52.192;4.628;2023-03-17T02:00:42;100704.47;;;16.73;49.96
71601;BME280;59446;52.192;4.628;2023-03-17T02:03:08;100703.88;;;16.68;50.66
71601;BME280;59446;52.192;4.628;2023-03-17T02:05:35;100694.28;;;16.67;50.27
71601;BME280;59446;52.192;4.628;2023-03-17T02:08:01;100701.41;;;16.65;50.49
71601;BME280;59446;52.192;4.628;2023-03-17T02:10:27;100688.94;;;16.69;50.36
71601;BME280;59446;52.192;4.628;2023-03-17T02:12:56;100692.34;;;16.71;50.39
71601;BME280;59446;52.192;4.628;2023-03-17T02:15:23;100686.31;;;16.69;50.53
71601;BME280;59446;52.192;4.628;2023-03-17T02:17:48;100700.22;;;16.71;50.24
71601;BME280;59446;52.192;4.628;2023-03-17T02:22:50;100689.31;;;16.62;50.11
71601;BME280;59446;52.192;4.628;2023-03-17T02:25:17;100687.53;;;16.63;50.35
71601;BME280;59446;52.192;4.628;2023-03-17T02:27:47;100688.19;;;16.66;50.66
71601;BME280;59446;52.192;4.628;2023-03-17T02:30:17;100682.00;;;16.67;50.73
71601;BME280;59446;52.192;4.628;2023-03-17T02:32:43;100692.91;;;16.60;50.25
71601;BME280;59446;52.192;4.628;2023-03-17T02:35:09;100695.47;;;16.61;50.82
71601;BME280;59446;52.192;4.628;2023-03-17T02:37:35;100691.00;;;16.63;50.20
71601;BME280;59446;52.192;4.628;2023-03-17T02:40:01;100692.06;;;16.59;50.64
71601;BME280;59446;52.192;4.628;2023-03-17T02:42:27;100698.09;;;16.61;50.60
71601;BME280;59446;52.192;4.628;2023-03-17T02:44:53;100705.13;;;16.61;50.58
71601;BME280;59446;52.192;4.628;2023-03-17T02:47:19;100697.34;;;16.59;50.92
71601;BME280;59446;52.192;4.628;2023-03-17T02:49:46;100693.75;;;16.60;50.47
71601;BME280;59446;52.192;4.628;2023-03-17T02:52:11;100698.19;;;16.60;50.78
71601;BME280;59446;52.192;4.628;2023-03-17T02:54:37;100685.88;;;16.60;50.83
71601;BME280;59446;52.192;4.628;2023-03-17T02:57:03;100692.06;;;16.59;50.30
71601;BME280;59446;52.192;4.628;2023-03-17T02:59:28;100679.69;;;16.61;50.46
71601;BME280;59446;52.192;4.628;2023-03-17T03:01:54;100693.84;;;16.59;51.04
71601;BME280;59446;52.192;4.628;2023-03-17T03:04:20;100688.69;;;16.57;50.18
71601;BME280;59446;52.192;4.628;2023-03-17T03:06:46;100692.25;;;16.56;50.46
71601;BME280;59446;52.192;4.628;2023-03-17T03:09:12;100699.19;;;16.57;50.49
71601;BME280;59446;52.192;4.628;2023-03-17T03:11:38;100691.41;;;16.56;50.55
71601;BME280;59446;52.192;4.628;2023-03-17T03:14:05;100687.00;;;16.56;50.88
71601;BME280;59446;52.192;4.628;2023-03-17T03:16:32;100691.41;;;16.56;50.89
71601;BME280;59446;52.192;4.628;2023-03-17T03:18:57;100685.34;;;16.54;50.40
71601;BME280;59446;52.192;4.628;2023-03-17T03:21:23;100688.59;;;16.59;50.80
71601;BME280;59446;52.192;4.628;2023-03-17T03:23:48;100684.69;;;16.50;50.46
71601;BME280;59446;52.192;4.628;2023-03-17T03:26:14;100690.78;;;16.51;50.52
71601;BME280;59446;52.192;4.628;2023-03-17T03:28:39;100700.97;;;16.57;50.51
71601;BME280;59446;52.192;4.628;2023-03-17T03:31:04;100698.59;;;16.52;50.69
71601;BME280;59446;52.192;4.628;2023-03-17T03:33:30;100709.00;;;16.54;50.49
71601;BME280;59446;52.192;4.628;2023-03-17T03:35:55;100718.00;;;16.50;51.00
71601;BME280;59446;52.192;4.628;2023-03-17T03:38:21;100701.38;;;16.49;50.63
71601;BME280;59446;52.192;4.628;2023-03-17T03:40:46;100701.22;;;16.52;50.83
71601;BME280;59446;52.192;4.628;2023-03-17T03:43:12;100700.38;;;16.52;50.99
71601;BME280;59446;52.192;4.628;2023-03-17T03:45:37;100689.00;;;16.51;50.82
71601;BME280;59446;52.192;4.628;2023-03-17T03:48:03;100701.56;;;16.46;51.06
71601;BME280;59446;52.192;4.628;2023-03-17T03:50:28;100698.00;;;16.47;50.39
71601;BME280;59446;52.192;4.628;2023-03-17T03:52:54;100704.19;;;16.46;50.94
71601;BME280;59446;52.192;4.628;2023-03-17T03:55:19;100705.13;;;16.45;50.67
71601;BME280;59446;52.192;4.628;2023-03-17T03:57:45;100707.66;;;16.47;50.66
71601;BME280;59446;52.192;4.628;2023-03-17T04:00:11;100715.72;;;16.44;51.07
71601;BME280;59446;52.192;4.628;2023-03-17T04:02:39;100712.06;;;16.46;51.00
71601;BME280;59446;52.192;4.628;2023-03-17T04:05:05;100717.34;;;16.46;50.50
71601;BME280;59446;52.192;4.628;2023-03-17T04:07:31;100722.41;;;16.49;50.46
71601;BME280;59446;52.192;4.628;2023-03-17T04:09:57;100716.47;;;16.46;50.50
71601;BME280;59446;52.192;4.628;2023-03-17T04:12:24;100710.28;;;16.47;51.13
71601;BME280;59446;52.192;4.628;2023-03-17T04:14:49;100722.75;;;16.43;51.08
71601;BME280;59446;52.192;4.628;2023-03-17T04:17:15;100708.09;;;16.39;50.72
71601;BME280;59446;52.192;4.628;2023-03-17T04:19:41;100714.28;;;16.38;50.57
71601;BME280;59446;52.192;4.628;2023-03-17T04:22:07;100707.91;;;16.42;50.54
71601;BME280;59446;52.192;4.628;2023-03-17T04:24:33;100699.19;;;16.42;51.30
71601;BME280;59446;52.192;4.628;2023-03-17T04:26:59;100692.31;;;16.39;51.11
71601;BME280;59446;52.192;4.628;2023-03-17T04:29:26;100695.81;;;16.40;50.78
71601;BME280;59446;52.192;4.628;2023-03-17T04:31:51;100697.59;;;16.39;50.62
71601;BME280;59446;52.192;4.628;2023-03-17T04:34:17;100709.88;;;16.39;50.68
71601;BME280;59446;52.192;4.628;2023-03-17T04:36:45;100709.13;;;16.36;50.74
71601;BME280;59446;52.192;4.628;2023-03-17T04:39:11;100711.56;;;16.40;51.02
71601;BME280;59446;52.192;4.628;2023-03-17T04:41:37;100694.19;;;16.37;50.61
71601;BME280;59446;52.192;4.628;2023-03-17T04:44:03;100700.38;;;16.36;51.05
71601;BME280;59446;52.192;4.628;2023-03-17T04:46:29;100704.09;;;16.32;51.08
71601;BME280;59446;52.192;4.628;2023-03-17T04:48:55;100721.53;;;16.33;51.42
71601;BME280;59446;52.192;4.628;2023-03-17T04:51:21;100718.88;;;16.34;51.04
71601;BME280;59446;52.192;4.628;2023-03-17T04:53:46;100719.72;;;16.35;51.30
71601;BME280;59446;52.192;4.628;2023-03-17T04:56:13;100724.97;;;16.35;50.97
71601;BME280;59446;52.192;4.628;2023-03-17T04:58:38;100710.97;;;16.34;51.03
71601;BME280;59446;52.192;4.628;2023-03-17T05:01:04;100705.78;;;16.33;51.05
71601;BME280;59446;52.192;4.628;2023-03-17T05:03:30;100699.63;;;16.34;50.80
71601;BME280;59446;52.192;4.628;2023-03-17T05:05:57;100708.66;;;16.28;51.14
71601;BME280;59446;52.192;4.628;2023-03-17T05:08:23;100708.50;;;16.31;51.46
71601;BME280;59446;52.192;4.628;2023-03-17T05:10:49;100698.06;;;16.30;50.54
71601;BME280;59446;52.192;4.628;2023-03-17T05:13:15;100699.75;;;16.31;50.64
71601;BME280;59446;52.192;4.628;2023-03-17T05:15:45;100685.56;;;16.35;50.96
71601;BME280;59446;52.192;4.628;2023-03-17T05:18:11;100689.09;;;16.34;50.82
71601;BME280;59446;52.192;4.628;2023-03-17T05:20:36;100685.00;;;16.28;51.05
71601;BME280;59446;52.192;4.628;2023-03-17T05:23:01;100689.34;;;16.29;50.85
71601;BME280;59446;52.192;4.628;2023-03-17T05:25:27;100689.34;;;16.29;51.19
71601;BME280;59446;52.192;4.628;2023-03-17T05:27:52;100675.19;;;16.32;50.87
71601;BME280;59446;52.192;4.628;2023-03-17T05:30:18;100656.97;;;16.29;50.97
71601;BME280;59446;52.192;4.628;2023-03-17T05:32:43;100637.81;;;16.27;50.78
71601;BME280;59446;52.192;4.628;2023-03-17T05:35:08;100648.91;;;16.32;50.59
71601;BME280;59446;52.192;4.628;2023-03-17T05:37:34;100658.47;;;16.33;51.14
71601;BME280;59446;52.192;4.628;2023-03-17T05:39:59;100668.16;;;16.32;50.77
71601;BME280;59446;52.192;4.628;2023-03-17T05:42:25;100675.25;;;16.30;50.63
71601;BME280;59446;52.192;4.628;2023-03-17T05:44:50;100671.78;;;16.30;51.11
71601;BME280;59446;52.192;4.628;2023-03-17T05:47:15;100680.69;;;16.27;50.94
71601;BME280;59446;52.192;4.628;2023-03-17T05:49:41;100711.38;;;16.27;51.22
71601;BME280;59446;52.192;4.628;2023-03-17T05:52:06;100701.03;;;16.24;51.23
71601;BME280;59446;52.192;4.628;2023-03-17T05:54:32;100691.38;;;16.24;51.19
71601;BME280;59446;52.192;4.628;2023-03-17T05:56:57;100691.28;;;16.26;50.91
71601;BME280;59446;52.192;4.628;2023-03-17T05:59:22;100703.50;;;16.27;50.93
71601;BME280;59446;52.192;4.628;2023-03-17T06:01:48;100709.69;;;16.26;51.35
71601;BME280;59446;52.192;4.628;2023-03-17T06:04:13;100700.94;;;16.25;51.31
71601;BME280;59446;52.192;4.628;2023-03-17T06:06:38;100687.97;;;16.22;50.71
71601;BME280;59446;52.192;4.628;2023-03-17T06:09:04;100673.06;;;16.23;50.67
71601;BME280;59446;52.192;4.628;2023-03-17T06:11:30;100672.22;;;16.22;50.90
71601;BME280;59446;52.192;4.628;2023-03-17T06:13:55;100670.34;;;16.24;51.44
71601;BME280;59446;52.192;4.628;2023-03-17T06:16:21;100672.13;;;16.24;51.14
71601;BME280;59446;52.192;4.628;2023-03-17T06:18:46;100667.81;;;16.23;51.33
71601;BME280;59446;52.192;4.628;2023-03-17T06:21:13;100675.88;;;16.20;51.45
71601;BME280;59446;52.192;4.628;2023-03-17T06:23:38;100674.00;;;16.22;51.40
71601;BME280;59446;52.192;4.628;2023-03-17T06:26:04;100674.09;;;16.20;51.20
71601;BME280;59446;52.192;4.628;2023-03-17T06:28:30;100681.13;;;16.20;51.44
71601;BME280;59446;52.192;4.628;2023-03-17T06:30:56;100698.59;;;16.21;50.82
71601;BME280;59446;52.192;4.628;2023-03-17T06:33:22;100703.00;;;16.20;51.15
71601;BME280;59446;52.192;4.628;2023-03-17T06:35:48;100710.88;;;16.20;51.15
71601;BME280;59446;52.192;4.628;2023-03-17T06:38:14;100702.22;;;16.18;51.50
71601;BME280;59446;52.192;4.628;2023-03-17T06:40:39;100688.25;;;16.18;51.09
71601;BME280;59446;52.192;4.628;2023-03-17T06:43:05;100690.69;;;16.21;50.86
71601;BME280;59446;52.192;4.628;2023-03-17T06:45:31;100690.69;;;16.21;50.75
71601;BME280;59446;52.192;4.628;2023-03-17T06:47:57;100701.28;;;16.19;51.25
71601;BME280;59446;52.192;4.628;2023-03-17T06:50:23;100706.47;;;16.21;50.78
71601;BME280;59446;52.192;4.628;2023-03-17T06:52:48;100710.09;;;16.18;51.09
71601;BME280;59446;52.192;4.628;2023-03-17T06:55:14;100694.25;;;16.20;50.84
71601;BME280;59446;52.192;4.628;2023-03-17T06:57:40;100697.81;;;16.19;51.33
71601;BME280;59446;52.192;4.628;2023-03-17T07:00:07;100716.22;;;16.19;51.08
71601;BME280;59446;52.192;4.628;2023-03-17T07:02:33;100719.16;;;16.13;50.99
71601;BME280;59446;52.192;4.628;2023-03-17T07:04:59;100724.44;;;16.13;50.86
71601;BME280;59446;52.192;4.628;2023-03-17T07:07:28;100730.81;;;16.07;51.28
71601;BME280;59446;52.192;4.628;2023-03-17T07:09:53;100717.53;;;16.10;50.60
71601;BME280;59446;52.192;4.628;2023-03-17T07:12:19;100725.75;;;16.04;50.77
71601;BME280;59446;52.192;4.628;2023-03-17T07:14:44;100716.09;;;16.04;50.28
71601;BME280;59446;52.192;4.628;2023-03-17T07:17:12;100728.38;;;16.04;50.20
71601;BME280;59446;52.192;4.628;2023-03-17T07:19:38;100705.75;;;16.01;50.79
71601;BME280;59446;52.192;4.628;2023-03-17T07:22:05;100703.28;;;15.98;50.12
71601;BME280;59446;52.192;4.628;2023-03-17T07:24:31;100714.63;;;15.99;50.64
71601;BME280;59446;52.192;4.628;2023-03-17T07:26:56;100709.47;;;15.97;49.83
71601;BME280;59446;52.192;4.628;2023-03-17T07:29:22;100721.59;;;16.00;49.58
71601;BME280;59446;52.192;4.628;2023-03-17T07:31:48;100728.38;;;16.04;49.76
71601;BME280;59446;52.192;4.628;2023-03-17T07:34:14;100720.31;;;16.07;49.60
71601;BME280;59446;52.192;4.628;2023-03-17T07:36:40;100713.06;;;16.12;49.49
71601;BME280;59446;52.192;4.628;2023-03-17T07:39:06;100707.09;;;16.09;50.01
71601;BME280;59446;52.192;4.628;2023-03-17T07:41:32;100711.59;;;16.06;49.70
71601;BME280;59446;52.192;4.628;2023-03-17T07:43:58;100694.22;;;16.04;49.85
71601;BME280;59446;52.192;4.628;2023-03-17T07:46:23;100690.66;;;16.05;49.62
71601;BME280;59446;52.192;4.628;2023-03-17T07:48:49;100695.00;;;16.06;49.84
71601;BME280;59446;52.192;4.628;2023-03-17T07:51:17;100713.47;;;16.04;50.00
71601;BME280;59446;52.192;4.628;2023-03-17T07:53:45;100752.69;;;16.08;49.45
71601;BME280;59446;52.192;4.628;2023-03-17T07:56:12;100738.78;;;16.05;50.00
71601;BME280;59446;52.192;4.628;2023-03-17T07:58:38;100738.63;;;16.09;49.75
71601;BME280;59446;52.192;4.628;2023-03-17T08:01:04;100738.53;;;16.10;49.87
71601;BME280;59446;52.192;4.628;2023-03-17T08:03:31;100728.84;;;16.12;49.79
71601;BME280;59446;52.192;4.628;2023-03-17T08:05:56;100722.72;;;16.12;49.85
71601;BME280;59446;52.192;4.628;2023-03-17T08:08:26;100724.25;;;16.16;49.52
71601;BME280;59446;52.192;4.628;2023-03-17T08:10:56;100714.34;;;16.21;50.12
71601;BME280;59446;52.192;4.628;2023-03-17T08:13:22;100697.50;;;16.41;50.13
71601;BME280;59446;52.192;4.628;2023-03-17T08:15:51;100703.53;;;16.58;49.45
71601;BME280;59446;52.192;4.628;2023-03-17T08:18:17;100695.63;;;16.74;49.72
71601;BME280;59446;52.192;4.628;2023-03-17T08:20:43;100689.34;;;16.92;49.18
71601;BME280;59446;52.192;4.628;2023-03-17T08:23:08;100689.78;;;17.15;48.94
71601;BME280;59446;52.192;4.628;2023-03-17T08:25:33;100689.59;;;17.18;49.11
71601;BME280;59446;52.192;4.628;2023-03-17T08:27:59;100688.25;;;17.26;49.44
71601;BME280;59446;52.192;4.628;2023-03-17T08:30:24;100695.00;;;17.31;49.06
71601;BME280;59446;52.192;4.628;2023-03-17T08:32:50;100702.16;;;17.43;49.25
71601;BME280;59446;52.192;4.628;2023-03-17T08:35:17;100702.59;;;17.51;49.24
71601;BME280;59446;52.192;4.628;2023-03-17T08:37:46;100702.50;;;17.52;49.10
71601;BME280;59446;52.192;4.628;2023-03-17T08:40:14;100707.50;;;17.57;49.24
71601;BME280;59446;52.192;4.628;2023-03-17T08:42:45;100701.97;;;17.62;49.10
71601;BME280;59446;52.192;4.628;2023-03-17T08:45:12;100701.97;;;17.62;49.02
71601;BME280;59446;52.192;4.628;2023-03-17T08:47:38;100703.66;;;17.63;49.21
71601;BME280;59446;52.192;4.628;2023-03-17T08:50:08;100701.03;;;17.63;49.34
71601;BME280;59446;52.192;4.628;2023-03-17T08:52:34;100708.16;;;17.61;49.60
71601;BME280;59446;52.192;4.628;2023-03-17T08:55:00;100702.16;;;17.58;49.39
71601;BME280;59446;52.192;4.628;2023-03-17T08:57:26;100708.53;;;17.54;49.87
71601;BME280;59446;52.192;4.628;2023-03-17T08:59:53;100710.38;;;17.52;49.96
71601;BME280;59446;52.192;4.628;2023-03-17T09:02:18;100720.06;;;17.52;50.05
71601;BME280;59446;52.192;4.628;2023-03-17T09:04:44;100720.25;;;17.49;50.09
71601;BME280;59446;52.192;4.628;2023-03-17T09:07:11;100723.94;;;17.46;50.11
71601;BME280;59446;52.192;4.628;2023-03-17T09:09:37;100723.00;;;17.47;50.97
71601;BME280;59446;52.192;4.628;2023-03-17T09:12:04;100712.28;;;17.50;50.44
71601;BME280;59446;52.192;4.628;2023-03-17T09:14:32;100722.38;;;17.58;50.30
71601;BME280;59446;52.192;4.628;2023-03-17T09:16:57;100724.44;;;17.67;49.99
71601;BME280;59446;52.192;4.628;2023-03-17T09:19:22;100729.84;;;17.80;49.58
71601;BME280;59446;52.192;4.628;2023-03-17T09:21:49;100735.31;;;18.05;49.23
71601;BME280;59446;52.192;4.628;2023-03-17T09:24:16;100741.22;;;18.23;49.21
71601;BME280;59446;52.192;4.628;2023-03-17T09:26:42;100738.84;;;18.33;49.12
71601;BME280;59446;52.192;4.628;2023-03-17T09:29:07;100743.88;;;18.37;49.62
71601;BME280;59446;52.192;4.628;2023-03-17T09:31:33;100750.47;;;18.44;49.06
71601;BME280;59446;52.192;4.628;2023-03-17T09:34:01;100747.09;;;18.42;49.47
71601;BME280;59446;52.192;4.628;2023-03-17T09:36:28;100750.28;;;18.47;48.56
71601;BME280;59446;52.192;4.628;2023-03-17T09:38:53;100757.34;;;18.47;48.42
71601;BME280;59446;52.192;4.628;2023-03-17T09:49:39;100766.19;;;18.46;49.28
71601;BME280;59446;52.192;4.628;2023-03-17T09:52:11;100770.72;;;18.44;49.75
71601;BME280;59446;52.192;4.628;2023-03-17T09:54:39;100767.44;;;18.40;49.52
71601;BME280;59446;52.192;4.628;2023-03-17T09:57:12;100773.16;;;18.47;49.25
71601;BME280;59446;52.192;4.628;2023-03-17T09:59:43;100768.63;;;18.49;49.26
71601;BME280;59446;52.192;4.628;2023-03-17T10:02:32;100770.22;;;18.52;49.53
71601;BME280;59446;52.192;4.628;2023-03-17T10:07:43;100767.50;;;18.53;48.98
71601;BME280;59446;52.192;4.628;2023-03-17T10:10:23;100778.16;;;18.52;49.09
71601;BME280;59446;52.192;4.628;2023-03-17T10:13:07;100799.63;;;18.60;49.25
71601;BME280;59446;52.192;4.628;2023-03-17T10:15:43;100802.34;;;18.58;48.85
71601;BME280;59446;52.192;4.628;2023-03-17T10:18:13;100801.59;;;18.56;49.05
71601;BME280;59446;52.192;4.628;2023-03-17T10:21:01;100791.22;;;18.67;48.89
71601;BME280;59446;52.192;4.628;2023-03-17T10:23:30;100788.50;;;18.69;48.88
71601;BME280;59446;52.192;4.628;2023-03-17T10:26:01;100792.16;;;18.66;49.09
71601;BME280;59446;52.192;4.628;2023-03-17T10:28:31;100804.97;;;18.72;48.74
71601;BME280;59446;52.192;4.628;2023-03-17T10:31:27;100789.78;;;18.76;49.03
71601;BME280;59446;52.192;4.628;2023-03-17T10:33:53;100800.88;;;18.81;48.82
71601;BME280;59446;52.192;4.628;2023-03-17T10:36:37;100793.81;;;18.82;48.48
71601;BME280;59446;52.192;4.628;2023-03-17T10:39:04;100790.25;;;18.83;48.70
71601;BME280;59446;52.192;4.628;2023-03-17T10:41:37;100793.53;;;18.86;48.51
71601;BME280;59446;52.192;4.628;2023-03-17T10:44:08;100789.97;;;18.87;48.73
71601;BME280;59446;52.192;4.628;2023-03-17T10:46:36;100784.81;;;18.98;48.06
71601;BME280;59446;52.192;4.628;2023-03-17T10:49:11;100773.81;;;18.92;48.60
71601;BME280;59446;52.192;4.628;2023-03-17T10:51:45;100774.50;;;18.81;49.02
71601;BME280;59446;52.192;4.628;2023-03-17T10:54:16;100769.31;;;18.79;48.93
71601;BME280;59446;52.192;4.628;2023-03-17T10:56:46;100769.06;;;18.84;48.90
71601;BME280;59446;52.192;4.628;2023-03-17T10:59:17;100774.97;;;18.88;48.72
71601;BME280;59446;52.192;4.628;2023-03-17T11:01:57;100773.19;;;18.88;48.90
71601;BME280;59446;52.192;4.628;2023-03-17T11:06:59;100764.31;;;18.89;48.91
71601;BME280;59446;52.192;4.628;2023-03-17T11:09:33;100772.47;;;18.99;48.31
71601;BME280;59446;52.192;4.628;2023-03-17T11:12:05;100775.75;;;19.02;48.26
71601;BME280;59446;52.192;4.628;2023-03-17T11:14:31;100772.00;;;19.06;48.01
71601;BME280;59446;52.192;4.628;2023-03-17T11:17:00;100767.00;;;19.02;48.16
71601;BME280;59446;52.192;4.628;2023-03-17T11:22:10;100765.22;;;19.02;48.09
71601;BME280;59446;52.192;4.628;2023-03-17T11:27:39;100752.69;;;19.06;47.85
71601;BME280;59446;52.192;4.628;2023-03-17T11:33:04;100746.25;;;19.10;47.92
71601;BME280;59446;52.192;4.628;2023-03-17T11:35:49;100742.97;;;19.06;47.98
71601;BME280;59446;52.192;4.628;2023-03-17T11:38:24;100738.34;;;19.10;47.93
71601;BME280;59446;52.192;4.628;2023-03-17T11:46:36;100719.00;;;19.09;48.19
71601;BME280;59446;52.192;4.628;2023-03-17T11:49:12;100711.00;;;19.11;47.71
71601;BME280;59446;52.192;4.628;2023-03-17T11:51:57;100690.50;;;19.15;47.89
71601;BME280;59446;52.192;4.628;2023-03-17T11:57:13;100676.03;;;19.20;48.23
71601;BME280;59446;52.192;4.628;2023-03-17T11:59:53;100683.97;;;19.20;48.29
71601;BME280;59446;52.192;4.628;2023-03-17T12:05:16;100689.81;;;19.25;48.02
71601;BME280;59446;52.192;4.628;2023-03-17T12:07:50;100679.16;;;19.27;48.46
71601;BME280;59446;52.192;4.628;2023-03-17T12:10:23;100683.50;;;19.28;48.10
71601;BME280;59446;52.192;4.628;2023-03-17T12:12:57;100681.59;;;19.30;48.40
71601;BME280;59446;52.192;4.628;2023-03-17T12:15:35;100692.91;;;19.32;48.15
71601;BME280;59446;52.192;4.628;2023-03-17T12:18:09;100693.97;;;19.42;48.30
71601;BME280;59446;52.192;4.628;2023-03-17T12:26:04;100724.63;;;19.57;48.63
71601;BME280;59446;52.192;4.628;2023-03-17T12:28:55;100733.91;;;19.63;48.28
71601;BME280;59446;52.192;4.628;2023-03-17T12:31:31;100732.13;;;19.63;48.41
71601;BME280;59446;52.192;4.628;2023-03-17T12:34:30;100730.75;;;19.58;48.58
71601;BME280;59446;52.192;4.628;2023-03-17T12:36:58;100731.81;;;19.55;48.47
71601;BME280;59446;52.192;4.628;2023-03-17T12:39:30;100723.69;;;19.58;48.47
71601;BME280;59446;52.192;4.628;2023-03-17T12:44:45;100743.44;;;19.65;49.04
71601;BME280;59446;52.192;4.628;2023-03-17T12:55:14;100723.88;;;19.68;49.03
71601;BME280;59446;52.192;4.628;2023-03-17T12:57:44;100718.91;;;19.63;49.31
71601;BME280;59446;52.192;4.628;2023-03-17T13:00:25;100709.09;;;19.65;49.31
71601;BME280;59446;52.192;4.628;2023-03-17T13:03:30;100709.72;;;19.69;49.30
71601;BME280;59446;52.192;4.628;2023-03-17T13:05:59;100717.75;;;19.67;49.19
71601;BME280;59446;52.192;4.628;2023-03-17T13:08:43;100704.16;;;19.74;48.77
71601;BME280;59446;52.192;4.628;2023-03-17T13:11:44;100713.00;;;19.73;48.98
71601;BME280;59446;52.192;4.628;2023-03-17T13:14:15;100722.53;;;19.75;48.96
71601;BME280;59446;52.192;4.628;2023-03-17T13:16:47;100717.03;;;19.78;48.84
71601;BME280;59446;52.192;4.628;2023-03-17T13:19:22;100727.16;;;19.84;48.76
71601;BME280;59446;52.192;4.628;2023-03-17T13:24:46;100727.91;;;19.86;48.86
71601;BME280;59446;52.192;4.628;2023-03-17T13:28:00;100722.41;;;19.89;48.50
71601;BME280;59446;52.192;4.628;2023-03-17T13:36:04;100714.69;;;19.99;49.16
71601;BME280;59446;52.192;4.628;2023-03-17T13:46:53;100711.53;;;20.07;48.42
71601;BME280;59446;52.192;4.628;2023-03-17T13:52:13;100705.19;;;20.09;48.64
71601;BME280;59446;52.192;4.628;2023-03-17T13:54:57;100703.91;;;20.15;48.29
71601;BME280;59446;52.192;4.628;2023-03-17T13:57:30;100698.72;;;20.13;48.63
71601;BME280;59446;52.192;4.628;2023-03-17T14:00:02;100691.53;;;20.15;48.24
71601;BME280;59446;52.192;4.628;2023-03-17T14:02:31;100693.22;;;20.16;48.25
71601;BME280;59446;52.192;4.628;2023-03-17T14:05:04;100702.66;;;20.20;48.28
71601;BME280;59446;52.192;4.628;2023-03-17T14:07:51;100691.13;;;20.21;48.57
71601;BME280;59446;52.192;4.628;2023-03-17T14:10:21;100684.88;;;20.22;48.15
71601;BME280;59446;52.192;4.628;2023-03-17T14:13:03;100683.91;;;20.23;48.35